Time;durP1;ratioP1;P1;durP2;ratioP2;P2;SDS_P1;SDS_P2;PMS_P1;PMS_P2;Temp;Humidity;BMP_temperature;BMP_pressure;BME280_temperature;BME280_humidity;BME280_pressure;Samples;Min_cycle;Max_cycle;Signal;HPM_P1;HPM_P2
2022/07/07 00:00:48;;;;;;;1.45;1.30;;;16.80;50.10;;;;;;608367;236;26619;-66
2022/07/07 00:03:16;;;;;;;1.35;1.25;;;16.80;50.50;;;;;;606901;236;26590;-66
2022/07/07 00:05:43;;;;;;;2.53;1.37;;;16.80;50.50;;;;;;602129;236;26899;-67
2022/07/07 00:08:11;;;;;;;1.48;1.10;;;16.80;50.40;;;;;;601836;239;26593;-66
2022/07/07 00:10:38;;;;;;;1.10;1.00;;;16.80;50.40;;;;;;603280;236;26887;-67
2022/07/07 00:13:05;;;;;;;1.12;0.80;;;16.80;50.50;;;;;;602831;236;26597;-67
2022/07/07 00:15:32;;;;;;;1.73;1.27;;;16.80;50.50;;;;;;603245;238;26841;-67
2022/07/07 00:17:59;;;;;;;1.60;1.10;;;16.80;50.70;;;;;;605870;235;26587;-67
2022/07/07 00:20:27;;;;;;;1.33;1.15;;;16.80;50.60;;;;;;602955;236;26885;-67
2022/07/07 00:22:55;;;;;;;1.50;1.10;;;16.80;50.50;;;;;;608800;236;26597;-67
2022/07/07 00:25:22;;;;;;;1.35;1.02;;;16.80;50.50;;;;;;603615;236;26826;-67
2022/07/07 00:27:49;;;;;;;2.25;1.15;;;16.90;50.70;;;;;;601576;238;26681;-67
2022/07/07 00:30:16;;;;;;;1.23;1.12;;;16.80;50.70;;;;;;604174;236;26847;-67
2022/07/07 00:32:44;;;;;;;0.80;0.80;;;16.80;50.70;;;;;;602408;235;26868;-67
2022/07/07 00:35:13;;;;;;;1.10;1.00;;;16.80;50.90;;;;;;606032;236;26588;-67
2022/07/07 00:37:41;;;;;;;1.15;1.00;;;16.80;51.20;;;;;;606292;236;26638;-67
2022/07/07 00:40:09;;;;;;;0.90;0.90;;;16.80;51.00;;;;;;609183;235;26946;-67
2022/07/07 00:42:36;;;;;;;1.10;1.10;;;16.70;51.50;;;;;;605835;235;26561;-67
2022/07/07 00:45:03;;;;;;;0.73;0.73;;;16.70;51.10;;;;;;607864;232;26570;-67
2022/07/07 00:47:31;;;;;;;1.05;1.05;;;16.80;51.20;;;;;;610072;236;26569;-67
2022/07/07 00:49:59;;;;;;;1.00;1.00;;;16.80;51.30;;;;;;605602;235;26638;-67
2022/07/07 00:52:27;;;;;;;0.68;0.68;;;16.80;51.30;;;;;;604093;237;26581;-67
2022/07/07 00:54:56;;;;;;;1.45;0.85;;;16.70;51.30;;;;;;604906;235;26588;-67
2022/07/07 00:57:22;;;;;;;0.77;0.77;;;16.70;51.30;;;;;;606965;235;26627;-67
2022/07/07 00:59:50;;;;;;;1.10;1.00;;;16.70;51.40;;;;;;610680;235;26683;-67
2022/07/07 01:02:17;;;;;;;1.00;1.00;;;16.80;51.40;;;;;;608612;234;26858;-67
2022/07/07 01:04:44;;;;;;;1.00;0.98;;;16.80;51.30;;;;;;607555;235;26612;-66
2022/07/07 01:07:11;;;;;;;1.17;0.85;;;16.70;51.50;;;;;;606877;235;26872;-66
2022/07/07 01:09:38;;;;;;;0.98;0.98;;;16.70;51.50;;;;;;604742;236;26674;-66
2022/07/07 01:12:06;;;;;;;1.20;1.10;;;16.70;51.70;;;;;;602924;233;26789;-66
2022/07/07 01:14:33;;;;;;;1.27;0.93;;;16.60;51.90;;;;;;607424;236;26584;-67
2022/07/07 01:17:00;;;;;;;1.40;1.02;;;16.60;52.90;;;;;;604876;236;27012;-67
2022/07/07 01:19:28;;;;;;;0.98;0.70;;;16.50;53.70;;;;;;602269;236;26594;-67
2022/07/07 01:21:55;;;;;;;1.62;1.02;;;16.10;56.00;;;;;;602027;238;27406;-66
2022/07/07 01:24:23;;;;;;;1.00;0.90;;;16.10;56.00;;;;;;603156;237;26857;-66
2022/07/07 01:26:50;;;;;;;0.75;0.75;;;16.00;57.30;;;;;;602785;236;26606;-67
2022/07/07 01:29:17;;;;;;;1.02;0.80;;;15.80;58.50;;;;;;602002;238;26654;-67
2022/07/07 01:31:45;;;;;;;0.98;0.98;;;15.80;59.40;;;;;;606893;236;26926;-67
2022/07/07 01:34:12;;;;;;;1.98;0.90;;;15.70;60.40;;;;;;604358;232;26824;-66
2022/07/07 01:36:39;;;;;;;0.98;0.70;;;15.60;62.60;;;;;;604511;237;26595;-67
2022/07/07 01:39:06;;;;;;;0.75;0.75;;;15.50;66.10;;;;;;604561;236;26849;-67
2022/07/07 01:41:34;;;;;;;0.90;0.88;;;15.30;71.30;;;;;;607247;235;26619;-67
2022/07/07 01:44:02;;;;;;;0.98;0.93;;;15.10;74.20;;;;;;602296;235;26650;-67
2022/07/07 01:46:31;;;;;;;1.25;0.90;;;15.00;76.10;;;;;;601501;237;26630;-67
2022/07/07 01:48:58;;;;;;;1.10;0.80;;;15.00;77.90;;;;;;607280;236;26669;-67
2022/07/07 01:51:25;;;;;;;1.05;0.90;;;15.00;77.90;;;;;;604921;234;26838;-67
2022/07/07 01:53:53;;;;;;;0.80;0.65;;;15.00;79.80;;;;;;606708;235;26646;-67
2022/07/07 01:56:21;;;;;;;0.85;0.68;;;14.80;84.00;;;;;;608127;235;26638;-67
2022/07/07 01:58:48;;;;;;;0.70;0.70;;;14.80;83.90;;;;;;607088;234;26656;-67
2022/07/07 02:01:15;;;;;;;0.70;0.70;;;14.80;86.60;;;;;;603313;236;26660;-66
2022/07/07 02:03:42;;;;;;;0.70;0.70;;;14.90;87.80;;;;;;609429;236;26885;-66
2022/07/07 02:06:09;;;;;;;0.80;0.80;;;14.80;87.30;;;;;;608517;233;26627;-69
2022/07/07 02:08:37;;;;;;;2.95;1.02;;;14.70;89.10;;;;;;604095;235;26900;-65
2022/07/07 02:13:37;;;;;;;1.40;0.80;;;14.70;91.10;;;;;;606672;235;26598;-65
2022/07/07 02:16:05;;;;;;;1.60;1.00;;;14.60;91.90;;;;;;602244;232;26559;-65
2022/07/07 02:18:34;;;;;;;3.60;0.93;;;14.50;91.90;;;;;;602190;239;26587;-65
2022/07/07 02:21:01;;;;;;;1.17;0.70;;;14.50;92.60;;;;;;604681;234;26605;-65
2022/07/07 02:23:29;;;;;;;1.50;0.80;;;14.40;94.40;;;;;;604605;236;26678;-65
2022/07/07 02:25:57;;;;;;;1.02;0.80;;;14.30;94.30;;;;;;605663;235;26597;-65
2022/07/07 02:28:24;;;;;;;0.57;0.57;;;14.40;94.40;;;;;;602014;238;26827;-65
2022/07/07 02:30:52;;;;;;;2.95;0.68;;;14.40;94.20;;;;;;604750;235;26602;-65
2022/07/07 02:33:19;;;;;;;1.33;0.65;;;14.40;95.50;;;;;;604154;235;27324;-65
2022/07/07 02:35:47;;;;;;;0.60;0.60;;;14.30;95.40;;;;;;606211;232;27240;-65
2022/07/07 02:38:14;;;;;;;0.70;0.60;;;14.30;95.50;;;;;;601727;237;26589;-65
2022/07/07 02:40:41;;;;;;;0.95;0.75;;;14.20;96.30;;;;;;602343;236;26851;-65
2022/07/07 02:43:12;;;;;;;5.87;1.23;;;14.20;96.60;;;;;;603708;235;26573;-67
2022/07/07 02:45:35;;;;;;;4.57;1.00;;;14.20;97.30;;;;;;604605;236;27245;-69
2022/07/07 02:48:03;;;;;;;3.37;1.05;;;14.20;97.40;;;;;;604036;235;26647;-68
2022/07/07 02:50:30;;;;;;;4.25;0.80;;;14.20;97.60;;;;;;602862;237;26615;-67
2022/07/07 02:52:57;;;;;;;0.60;0.60;;;14.30;97.60;;;;;;601576;236;27290;-67
2022/07/07 02:55:24;;;;;;;2.10;0.73;;;14.30;97.10;;;;;;601376;239;26640;-67
2022/07/07 02:57:51;;;;;;;1.33;0.90;;;14.30;98.20;;;;;;602791;236;26861;-67
2022/07/07 03:00:19;;;;;;;0.90;0.90;;;14.40;98.40;;;;;;602487;236;26694;-67
2022/07/07 03:02:46;;;;;;;2.45;0.80;;;14.40;98.80;;;;;;604543;237;26827;-67
2022/07/07 03:05:13;;;;;;;1.62;1.00;;;14.40;98.50;;;;;;604574;237;26571;-67
2022/07/07 03:07:41;;;;;;;1.40;0.85;;;14.40;98.00;;;;;;604953;236;26618;-66
2022/07/07 03:10:09;;;;;;;1.10;1.00;;;14.40;98.30;;;;;;609877;235;27289;-67
2022/07/07 03:12:36;;;;;;;2.05;1.00;;;14.40;98.40;;;;;;611466;235;26581;-67
2022/07/07 03:15:04;;;;;;;1.15;1.00;;;14.40;98.10;;;;;;612777;234;26602;-68
2022/07/07 03:17:31;;;;;;;0.70;0.70;;;14.40;98.50;;;;;;612607;232;26613;-68
2022/07/07 03:19:59;;;;;;;0.60;0.60;;;14.50;98.60;;;;;;603358;235;26688;-69
2022/07/07 03:22:27;;;;;;;1.37;0.77;;;14.60;98.90;;;;;;602469;237;26604;-69
2022/07/07 03:24:54;;;;;;;0.62;0.52;;;14.60;98.80;;;;;;602399;237;26573;-69
2022/07/07 03:27:21;;;;;;;2.00;0.98;;;14.60;98.70;;;;;;602175;237;26642;-69
2022/07/07 03:29:48;;;;;;;0.80;0.55;;;14.60;98.60;;;;;;602068;237;26913;-69
2022/07/07 03:32:16;;;;;;;1.10;0.70;;;14.60;98.80;;;;;;602120;237;26589;-69
2022/07/07 03:34:43;;;;;;;1.92;0.85;;;14.60;98.20;;;;;;602071;239;26829;-68
2022/07/07 03:37:10;;;;;;;0.70;0.70;;;14.70;98.30;;;;;;601833;239;26819;-68
2022/07/07 03:39:38;;;;;;;0.70;0.60;;;14.60;98.00;;;;;;601853;239;26555;-69
2022/07/07 03:42:05;;;;;;;1.37;0.77;;;14.70;98.50;;;;;;601913;239;26965;-69
2022/07/07 03:44:33;;;;;;;0.93;0.80;;;14.60;98.20;;;;;;601819;239;26589;-69
2022/07/07 03:47:00;;;;;;;1.00;0.75;;;14.70;98.80;;;;;;601713;237;26827;-69
2022/07/07 03:49:27;;;;;;;0.65;0.65;;;14.70;98.70;;;;;;601609;239;26596;-69
2022/07/07 03:51:54;;;;;;;2.62;0.60;;;14.60;98.60;;;;;;601609;237;26806;-68
2022/07/07 03:54:21;;;;;;;1.52;0.70;;;14.70;98.30;;;;;;601414;237;26694;-68
2022/07/07 03:56:49;;;;;;;2.45;0.70;;;14.60;98.40;;;;;;601487;233;26880;-69
2022/07/07 03:59:16;;;;;;;0.55;0.55;;;14.70;98.10;;;;;;601507;238;26633;-69
2022/07/07 04:01:45;;;;;;;1.02;0.90;;;14.70;98.30;;;;;;601574;239;26889;-69
2022/07/07 04:04:11;;;;;;;0.85;0.80;;;14.60;98.70;;;;;;601545;239;26646;-69
2022/07/07 04:06:39;;;;;;;0.77;0.77;;;14.50;98.80;;;;;;601531;237;26652;-69
2022/07/07 04:09:07;;;;;;;0.77;0.73;;;14.40;99.30;;;;;;601549;238;26673;-69
2022/07/07 04:11:35;;;;;;;0.75;0.73;;;14.40;99.40;;;;;;601530;237;26645;-69
2022/07/07 04:14:03;;;;;;;0.50;0.50;;;14.40;99.40;;;;;;601522;237;26637;-69
2022/07/07 04:16:29;;;;;;;1.00;0.70;;;14.40;99.60;;;;;;601528;239;26633;-69
2022/07/07 04:18:56;;;;;;;1.08;0.98;;;14.40;99.90;;;;;;601535;237;26845;-69
2022/07/07 04:21:24;;;;;;;0.95;0.77;;;14.30;99.90;;;;;;601512;237;26650;-69
2022/07/07 04:23:51;;;;;;;0.93;0.73;;;14.30;99.90;;;;;;601571;237;27267;-69
2022/07/07 04:26:18;;;;;;;1.85;0.80;;;14.20;99.90;;;;;;601517;239;26625;-70
2022/07/07 04:28:46;;;;;;;0.60;0.60;;;14.20;99.90;;;;;;602107;237;27284;-70
2022/07/07 04:31:13;;;;;;;0.70;0.52;;;14.20;99.90;;;;;;602953;236;26855;-69
2022/07/07 04:33:41;;;;;;;1.02;0.80;;;14.30;99.90;;;;;;602567;239;26594;-69
2022/07/07 04:36:11;;;;;;;1.58;0.70;;;14.30;99.90;;;;;;602365;239;26650;-70
2022/07/07 04:38:37;;;;;;;1.27;0.75;;;14.30;99.90;;;;;;602043;238;26633;-69
2022/07/07 04:41:05;;;;;;;0.60;0.60;;;14.20;99.90;;;;;;601996;239;26613;-69
2022/07/07 04:43:32;;;;;;;2.15;0.60;;;14.20;99.90;;;;;;602093;237;26588;-70
2022/07/07 04:46:00;;;;;;;0.73;0.70;;;14.30;99.90;;;;;;602068;239;26834;-70
2022/07/07 04:48:27;;;;;;;0.82;0.70;;;14.30;99.90;;;;;;601807;239;26572;-70
2022/07/07 04:50:54;;;;;;;1.37;0.80;;;14.40;99.90;;;;;;601731;239;27285;-70
2022/07/07 04:53:21;;;;;;;0.60;0.60;;;14.50;99.90;;;;;;601795;238;26571;-70
2022/07/07 04:55:48;;;;;;;0.88;0.80;;;14.50;99.90;;;;;;601827;239;26828;-69
2022/07/07 04:58:16;;;;;;;1.05;0.68;;;14.50;99.90;;;;;;601804;239;26873;-69
2022/07/07 05:00:44;;;;;;;1.27;0.62;;;14.50;99.90;;;;;;601753;239;26610;-69
2022/07/07 05:03:12;;;;;;;0.60;0.60;;;14.60;99.90;;;;;;601751;237;26573;-69
2022/07/07 05:05:39;;;;;;;0.90;0.90;;;14.60;99.90;;;;;;601599;239;26615;-69
2022/07/07 05:08:07;;;;;;;0.77;0.77;;;14.70;99.90;;;;;;601548;239;26634;-70
2022/07/07 05:10:34;;;;;;;0.73;0.50;;;14.60;99.90;;;;;;601509;239;26879;-70
2022/07/07 05:13:01;;;;;;;0.95;0.90;;;14.60;99.90;;;;;;601525;237;26624;-69
2022/07/07 05:15:29;;;;;;;0.73;0.70;;;14.70;99.90;;;;;;601507;237;26662;-69
2022/07/07 05:17:57;;;;;;;1.42;1.00;;;14.80;99.90;;;;;;601507;237;26641;-70
2022/07/07 05:20:25;;;;;;;0.88;0.80;;;14.60;99.90;;;;;;601505;238;26657;-70
2022/07/07 05:22:52;;;;;;;0.90;0.90;;;14.60;99.90;;;;;;601520;238;26646;-69
2022/07/07 05:25:19;;;;;;;0.62;0.62;;;14.60;99.90;;;;;;601580;237;26646;-69
2022/07/07 05:27:48;;;;;;;0.70;0.70;;;14.60;99.90;;;;;;601497;237;26700;-69
2022/07/07 05:30:14;;;;;;;0.60;0.60;;;14.50;99.90;;;;;;601500;238;26659;-70
2022/07/07 05:32:41;;;;;;;0.70;0.70;;;14.60;99.90;;;;;;601492;239;26863;-69
2022/07/07 05:35:09;;;;;;;2.22;0.82;;;14.60;99.90;;;;;;603092;236;26835;-69
2022/07/07 05:37:36;;;;;;;0.98;0.60;;;14.60;99.90;;;;;;604146;235;26855;-70
2022/07/07 05:40:04;;;;;;;1.00;0.90;;;14.60;99.90;;;;;;604532;235;26663;-70
2022/07/07 05:42:31;;;;;;;0.68;0.68;;;14.60;99.90;;;;;;606313;230;26791;-71
2022/07/07 05:44:59;;;;;;;1.37;0.73;;;14.70;99.90;;;;;;603721;237;26638;-70
2022/07/07 05:47:27;;;;;;;1.17;0.90;;;14.70;99.90;;;;;;603576;237;26592;-71
2022/07/07 05:49:55;;;;;;;4.97;0.90;;;14.70;99.90;;;;;;606331;235;26643;-69
2022/07/07 05:52:23;;;;;;;1.55;1.05;;;14.70;99.90;;;;;;607804;234;26657;-71
2022/07/07 05:54:51;;;;;;;1.60;0.80;;;14.70;99.90;;;;;;604371;236;26641;-69
2022/07/07 05:57:18;;;;;;;1.67;0.90;;;14.70;99.90;;;;;;605565;236;26655;-71
2022/07/07 05:59:46;;;;;;;0.77;0.77;;;14.80;99.90;;;;;;604881;237;26638;-70
2022/07/07 06:02:14;;;;;;;1.62;1.08;;;14.80;99.90;;;;;;604888;238;26579;-66
2022/07/07 06:04:41;;;;;;;0.50;0.50;;;14.80;99.90;;;;;;604834;232;26575;-68
2022/07/07 06:07:09;;;;;;;0.98;0.90;;;14.70;99.90;;;;;;604859;237;26604;-69
2022/07/07 06:09:36;;;;;;;0.60;0.60;;;14.60;99.90;;;;;;604849;234;26819;-69
2022/07/07 06:12:03;;;;;;;1.33;0.80;;;14.60;99.90;;;;;;604875;237;26586;-68
2022/07/07 06:14:31;;;;;;;0.80;0.70;;;14.70;99.90;;;;;;604897;237;26577;-68
2022/07/07 06:16:58;;;;;;;3.58;1.33;;;14.60;99.90;;;;;;604708;237;26820;-67
2022/07/07 06:19:25;;;;;;;9.60;2.50;;;14.50;99.90;;;;;;604509;237;26580;-68
2022/07/07 06:21:52;;;;;;;9.70;2.90;;;14.50;99.90;;;;;;604606;237;26832;-67
2022/07/07 06:24:19;;;;;;;8.93;3.45;;;14.50;99.90;;;;;;604628;237;26574;-72
2022/07/07 06:26:46;;;;;;;9.98;2.95;;;14.50;99.90;;;;;;604611;238;27312;-71
2022/07/07 06:29:14;;;;;;;8.18;2.85;;;14.50;99.90;;;;;;604567;238;27238;-70
2022/07/07 06:31:42;;;;;;;2.15;1.33;;;14.60;99.90;;;;;;604601;234;26618;-71
2022/07/07 06:34:09;;;;;;;5.55;1.62;;;14.70;99.90;;;;;;604616;237;27235;-69
2022/07/07 06:36:36;;;;;;;2.87;1.25;;;14.80;99.90;;;;;;604615;237;26546;-68
2022/07/07 06:39:03;;;;;;;6.12;2.12;;;14.80;99.90;;;;;;604603;237;27153;-70
2022/07/07 06:41:36;;;;;;;95.43;20.80;;;14.80;99.90;;;;;;604558;232;26613;-70
2022/07/07 06:44:04;;;;;;;114.43;24.85;;;14.80;99.90;;;;;;604529;237;26574;-70
2022/07/07 06:46:32;;;;;;;120.37;23.23;;;14.80;99.90;;;;;;604631;237;26590;-68
2022/07/07 06:48:59;;;;;;;65.80;16.65;;;14.90;99.90;;;;;;604585;237;26812;-68
2022/07/07 06:51:26;;;;;;;65.47;16.85;;;14.90;99.90;;;;;;604702;236;26613;-67
2022/07/07 06:53:54;;;;;;;46.37;11.15;;;15.00;99.90;;;;;;606075;237;26589;-68
2022/07/07 06:56:22;;;;;;;63.95;15.30;;;14.90;99.90;;;;;;608763;235;26640;-67
2022/07/07 06:58:50;;;;;;;72.32;17.65;;;14.90;99.90;;;;;;610762;235;26585;-68
2022/07/07 07:01:18;;;;;;;19.85;6.43;;;14.80;99.90;;;;;;610590;235;26584;-67
2022/07/07 07:03:46;;;;;;;44.83;11.23;;;14.80;99.90;;;;;;610481;235;26572;-68
2022/07/07 07:06:14;;;;;;;52.10;14.63;;;14.90;99.90;;;;;;610487;235;26596;-68
2022/07/07 07:08:42;;;;;;;10.25;4.45;;;15.00;99.90;;;;;;610455;235;26595;-67
2022/07/07 07:11:10;;;;;;;17.05;5.53;;;15.10;99.90;;;;;;610199;235;26649;-67
2022/07/07 07:13:38;;;;;;;35.90;10.32;;;15.20;99.90;;;;;;610108;235;26653;-67
2022/07/07 07:16:06;;;;;;;26.52;9.20;;;15.20;99.90;;;;;;610132;236;26677;-68
2022/07/07 07:18:33;;;;;;;25.77;8.43;;;15.20;99.90;;;;;;610520;235;26628;-67
2022/07/07 07:21:01;;;;;;;21.70;6.37;;;15.20;99.90;;;;;;610534;235;26860;-67
2022/07/07 07:23:28;;;;;;;20.15;6.30;;;15.30;99.90;;;;;;610557;236;26594;-67
2022/07/07 07:25:55;;;;;;;13.85;4.10;;;15.30;99.90;;;;;;610558;236;26914;-67
2022/07/07 07:28:22;;;;;;;6.05;2.55;;;15.40;99.90;;;;;;610421;236;26619;-67
2022/07/07 07:30:49;;;;;;;3.25;1.10;;;15.40;99.90;;;;;;610228;236;27052;-67
2022/07/07 07:33:17;;;;;;;6.00;1.92;;;15.50;99.90;;;;;;610243;231;26550;-67
2022/07/07 07:35:44;;;;;;;4.03;2.12;;;15.50;99.90;;;;;;609901;235;26840;-67
2022/07/07 07:38:11;;;;;;;9.50;1.85;;;15.40;99.90;;;;;;609885;236;26584;-67
2022/07/07 07:40:38;;;;;;;2.70;1.35;;;15.40;99.90;;;;;;609906;236;26863;-67
2022/07/07 07:43:05;;;;;;;3.55;1.80;;;15.30;99.90;;;;;;609901;235;26591;-67
2022/07/07 07:45:33;;;;;;;4.03;1.77;;;15.40;99.90;;;;;;609960;235;26642;-67
2022/07/07 07:48:02;;;;;;;3.08;1.50;;;15.80;99.90;;;;;;609956;235;26637;-67
2022/07/07 07:50:29;;;;;;;3.47;1.42;;;15.80;99.90;;;;;;609814;236;26599;-67
2022/07/07 07:52:56;;;;;;;5.72;1.45;;;15.70;99.90;;;;;;609826;236;26550;-67
2022/07/07 07:55:23;;;;;;;3.45;1.50;;;15.90;99.90;;;;;;609919;236;26597;-67
2022/07/07 07:57:51;;;;;;;3.05;1.52;;;16.00;99.90;;;;;;609894;235;26864;-67
2022/07/07 08:00:18;;;;;;;4.65;1.33;;;16.10;99.90;;;;;;609835;236;26627;-67
2022/07/07 08:02:46;;;;;;;2.55;1.35;;;16.10;99.90;;;;;;609794;236;26910;-67
2022/07/07 08:05:13;;;;;;;3.45;1.30;;;16.10;99.90;;;;;;611491;233;27269;-68
2022/07/07 08:07:40;;;;;;;1.25;1.00;;;16.30;99.90;;;;;;610979;235;26593;-68
2022/07/07 08:10:08;;;;;;;2.12;1.20;;;16.30;99.90;;;;;;610753;235;26842;-68
2022/07/07 08:12:35;;;;;;;1.52;1.00;;;16.40;99.90;;;;;;610642;235;26561;-68
2022/07/07 08:15:02;;;;;;;1.50;1.20;;;16.60;99.90;;;;;;610809;236;27019;-68
2022/07/07 08:17:29;;;;;;;1.87;1.50;;;16.70;99.90;;;;;;610832;232;26603;-68
2022/07/07 08:19:57;;;;;;;2.95;1.48;;;16.60;99.90;;;;;;610841;235;26583;-68
2022/07/07 08:22:24;;;;;;;1.55;1.00;;;16.60;99.90;;;;;;610636;236;26836;-67
2022/07/07 08:24:51;;;;;;;2.30;0.90;;;16.70;99.90;;;;;;610557;230;26592;-67
2022/07/07 08:27:18;;;;;;;0.80;0.80;;;16.80;99.90;;;;;;610512;235;26836;-67
2022/07/07 08:29:45;;;;;;;1.27;0.90;;;17.00;99.90;;;;;;610519;236;26655;-67
2022/07/07 08:32:14;;;;;;;1.95;0.90;;;16.90;99.90;;;;;;610541;236;27048;-67
2022/07/07 08:34:40;;;;;;;1.20;0.77;;;16.90;99.90;;;;;;610522;236;26606;-67
2022/07/07 08:37:07;;;;;;;1.62;0.85;;;16.70;99.90;;;;;;610403;236;26840;-67
2022/07/07 08:39:34;;;;;;;2.72;0.73;;;16.60;99.90;;;;;;610032;236;26625;-67
2022/07/07 08:42:01;;;;;;;1.77;1.00;;;16.60;99.90;;;;;;609848;236;27240;-67
2022/07/07 08:44:29;;;;;;;0.43;0.43;;;16.70;99.90;;;;;;609864;236;26584;-67
2022/07/07 08:46:56;;;;;;;1.30;0.88;;;16.60;99.90;;;;;;609924;235;26589;-67
2022/07/07 08:49:24;;;;;;;0.65;0.65;;;16.80;99.90;;;;;;609871;236;26571;-67
2022/07/07 08:51:52;;;;;;;0.85;0.73;;;16.90;99.90;;;;;;609858;235;26608;-67
2022/07/07 08:54:20;;;;;;;0.77;0.70;;;17.00;99.50;;;;;;609827;235;26593;-66
2022/07/07 08:56:48;;;;;;;2.08;0.88;;;16.90;99.90;;;;;;609818;235;26601;-67
2022/07/07 08:59:15;;;;;;;0.90;0.82;;;16.90;99.60;;;;;;609966;235;26588;-67
2022/07/07 09:01:42;;;;;;;2.10;0.90;;;17.10;99.90;;;;;;609949;235;26599;-67
2022/07/07 09:04:09;;;;;;;1.02;0.80;;;17.10;99.60;;;;;;608953;236;26814;-67
2022/07/07 09:06:37;;;;;;;0.80;0.80;;;17.00;99.40;;;;;;609963;236;26849;-68
2022/07/07 09:09:05;;;;;;;1.85;0.82;;;17.20;99.50;;;;;;609802;236;27002;-67
2022/07/07 09:11:32;;;;;;;0.60;0.60;;;17.20;98.90;;;;;;609851;236;26616;-67
2022/07/07 09:14:11;;;;;;;0.68;0.68;;;17.30;98.80;;;;;;609790;236;27331;-67
2022/07/07 09:16:38;;;;;;;1.55;0.70;;;17.30;98.40;;;;;;611401;233;26637;-67
2022/07/07 09:19:06;;;;;;;2.42;0.70;;;17.40;98.20;;;;;;610967;234;26895;-67
2022/07/07 09:21:33;;;;;;;0.80;0.80;;;17.40;97.90;;;;;;610677;235;26591;-67
2022/07/07 09:24:00;;;;;;;1.10;0.70;;;17.40;97.90;;;;;;610661;235;26819;-67
2022/07/07 09:26:41;;;;;;;0.60;0.60;;;17.40;98.00;;;;;;610421;236;26664;-67
2022/07/07 09:29:09;;;;;;;0.60;0.55;;;17.50;98.90;;;;;;610421;235;26778;-67
2022/07/07 09:32:00;;;;;;;1.27;0.70;;;17.50;97.90;;;;;;610207;236;26599;-67
2022/07/07 09:34:30;;;;;;;1.27;0.80;;;17.50;98.60;;;;;;602414;236;26599;-67
2022/07/07 09:39:41;;;;;;;0.82;0.80;;;17.40;98.00;;;;;;601893;237;26586;-67
2022/07/07 09:42:20;;;;;;;0.70;0.70;;;17.40;99.10;;;;;;601811;239;26582;-68
2022/07/07 09:44:51;;;;;;;0.60;0.60;;;17.40;99.00;;;;;;601852;237;26551;-68
2022/07/07 09:47:21;;;;;;;0.50;0.50;;;17.40;98.90;;;;;;601086;239;26889;-68
2022/07/07 09:49:58;;;;;;;0.68;0.68;;;17.40;98.50;;;;;;601498;239;26629;-68
2022/07/07 09:52:25;;;;;;;0.60;0.60;;;17.40;98.90;;;;;;601562;237;26633;-68
2022/07/07 09:54:53;;;;;;;0.60;0.60;;;17.80;98.60;;;;;;601466;239;26665;-68
2022/07/07 09:57:21;;;;;;;0.52;0.52;;;17.60;98.10;;;;;;601568;232;26685;-68
2022/07/07 09:59:49;;;;;;;0.50;0.50;;;17.50;98.40;;;;;;601551;238;26645;-68
2022/07/07 10:02:18;;;;;;;1.42;0.52;;;17.50;98.50;;;;;;601538;239;26628;-68
2022/07/07 10:04:47;;;;;;;0.88;0.88;;;17.50;98.10;;;;;;601379;233;26633;-68
2022/07/07 10:07:14;;;;;;;0.55;0.55;;;17.50;98.20;;;;;;601448;239;26619;-66
2022/07/07 10:09:42;;;;;;;0.70;0.60;;;17.60;98.20;;;;;;601730;239;26615;-65
2022/07/07 10:12:09;;;;;;;0.73;0.50;;;17.60;98.20;;;;;;601889;237;26619;-65
2022/07/07 10:14:37;;;;;;;0.73;0.73;;;17.70;98.10;;;;;;601937;238;26842;-65
2022/07/07 10:17:04;;;;;;;0.60;0.60;;;17.80;98.00;;;;;;601627;239;26658;-65
2022/07/07 10:19:31;;;;;;;0.50;0.50;;;17.70;98.10;;;;;;601885;237;26832;-66
2022/07/07 10:21:58;;;;;;;0.55;0.55;;;17.70;98.10;;;;;;601880;239;26605;-66
2022/07/07 10:24:27;;;;;;;4.07;1.02;;;17.90;97.90;;;;;;601938;237;26872;-65
2022/07/07 10:26:53;;;;;;;3.87;1.17;;;18.00;97.40;;;;;;602526;237;26601;-66
2022/07/07 10:29:32;;;;;;;1.27;0.60;;;18.00;97.90;;;;;;603124;238;26838;-66
2022/07/07 10:32:00;;;;;;;0.80;0.62;;;18.10;97.20;;;;;;602707;239;26582;-66
2022/07/07 10:34:27;;;;;;;1.90;0.70;;;18.10;97.40;;;;;;602361;238;26878;-65
2022/07/07 10:37:06;;;;;;;2.37;0.80;;;18.30;97.10;;;;;;602152;239;26651;-65
2022/07/07 10:39:34;;;;;;;4.30;0.75;;;18.20;97.00;;;;;;602073;237;26823;-65
2022/07/07 10:42:05;;;;;;;1.27;0.73;;;18.10;96.40;;;;;;602056;237;26827;-65
2022/07/07 10:44:33;;;;;;;2.58;0.80;;;18.00;97.40;;;;;;601977;237;26585;-66
2022/07/07 10:47:05;;;;;;;0.98;0.80;;;18.00;97.80;;;;;;601908;239;26954;-65
2022/07/07 10:49:41;;;;;;;1.25;0.80;;;18.10;97.50;;;;;;601283;236;26582;-65
2022/07/07 10:52:10;;;;;;;1.55;0.88;;;18.10;97.40;;;;;;601842;237;26586;-65
2022/07/07 10:54:37;;;;;;;0.60;0.60;;;18.10;97.70;;;;;;601667;239;26586;-66
2022/07/07 10:57:13;;;;;;;3.72;0.80;;;17.90;99.00;;;;;;601840;232;26603;-66
2022/07/07 10:59:52;;;;;;;0.50;0.50;;;17.90;99.00;;;;;;601850;237;26586;-67
2022/07/07 11:02:37;;;;;;;2.25;0.98;;;17.70;99.00;;;;;;601685;237;26904;-68
2022/07/07 11:05:25;;;;;;;1.50;0.60;;;17.70;99.80;;;;;;601543;239;26659;-68
2022/07/07 11:08:06;;;;;;;0.70;0.65;;;17.80;99.90;;;;;;601516;238;26658;-67
2022/07/07 11:10:50;;;;;;;0.80;0.70;;;17.70;99.90;;;;;;601446;239;26849;-67
2022/07/07 11:13:34;;;;;;;0.62;0.60;;;17.80;99.90;;;;;;601247;239;26655;-67
2022/07/07 11:16:19;;;;;;;1.85;0.80;;;17.70;99.90;;;;;;601544;237;27186;-68
2022/07/07 11:18:50;;;;;;;0.85;0.68;;;17.70;99.90;;;;;;600619;238;26863;-67
2022/07/07 11:21:17;;;;;;;1.05;0.70;;;17.70;99.90;;;;;;601072;237;26674;-67
2022/07/07 11:23:48;;;;;;;0.85;0.70;;;17.70;99.90;;;;;;601538;239;26658;-68
2022/07/07 11:26:17;;;;;;;0.70;0.70;;;17.70;99.90;;;;;;601505;238;26864;-68
2022/07/07 11:28:44;;;;;;;2.67;0.80;;;17.70;99.90;;;;;;601605;237;26935;-67
2022/07/07 11:31:11;;;;;;;2.47;0.85;;;17.70;99.90;;;;;;601551;237;26689;-67
2022/07/07 11:33:39;;;;;;;1.37;0.65;;;17.70;99.90;;;;;;601545;237;26864;-67
2022/07/07 11:36:09;;;;;;;0.70;0.70;;;17.80;99.90;;;;;;601392;238;26637;-67
2022/07/07 11:38:36;;;;;;;0.68;0.68;;;17.70;99.90;;;;;;602346;237;26662;-67
2022/07/07 11:41:04;;;;;;;1.15;0.60;;;17.60;99.90;;;;;;602829;238;26891;-67
2022/07/07 11:43:31;;;;;;;0.80;0.62;;;17.70;99.90;;;;;;602556;237;26582;-67
2022/07/07 11:45:58;;;;;;;0.73;0.73;;;17.80;99.90;;;;;;602344;237;26796;-67
2022/07/07 11:48:26;;;;;;;0.73;0.73;;;17.80;99.90;;;;;;602149;237;26644;-67
2022/07/07 11:50:53;;;;;;;0.60;0.60;;;18.00;99.90;;;;;;601586;239;26818;-67
2022/07/07 11:53:21;;;;;;;0.80;0.80;;;18.10;99.90;;;;;;602155;237;26556;-68
2022/07/07 11:55:48;;;;;;;1.98;0.80;;;18.20;99.90;;;;;;602140;237;26594;-67
2022/07/07 11:58:15;;;;;;;0.80;0.80;;;18.10;99.90;;;;;;601786;239;26590;-68
2022/07/07 12:00:44;;;;;;;0.95;0.90;;;17.90;99.90;;;;;;601735;239;26614;-68
2022/07/07 12:03:12;;;;;;;2.78;0.95;;;18.00;99.90;;;;;;601731;239;26582;-68
2022/07/07 12:05:43;;;;;;;2.08;0.85;;;18.40;99.90;;;;;;601644;232;26578;-67
2022/07/07 12:08:08;;;;;;;0.80;0.80;;;18.60;99.90;;;;;;601573;239;26598;-68
2022/07/07 12:10:36;;;;;;;1.48;0.90;;;18.60;99.90;;;;;;601824;237;26633;-68
2022/07/07 12:13:05;;;;;;;1.25;0.60;;;19.00;99.90;;;;;;601762;237;26863;-69
2022/07/07 12:15:34;;;;;;;0.70;0.70;;;19.50;99.50;;;;;;601562;237;26842;-70
2022/07/07 12:17:59;;;;;;;1.33;0.90;;;20.00;98.30;;;;;;601745;238;26618;-68
2022/07/07 12:20:26;;;;;;;0.95;0.95;;;20.40;96.90;;;;;;601889;238;27096;-67
2022/07/07 12:22:54;;;;;;;0.70;0.70;;;21.20;94.80;;;;;;601901;238;26610;-66
2022/07/07 12:25:21;;;;;;;1.85;0.93;;;21.80;92.60;;;;;;601927;234;26602;-67
2022/07/07 12:27:59;;;;;;;0.80;0.80;;;23.30;86.30;;;;;;601822;239;26612;-73
2022/07/07 12:30:26;;;;;;;1.27;1.10;;;23.20;86.20;;;;;;601700;239;27098;-67
2022/07/07 12:32:53;;;;;;;0.90;0.90;;;23.50;86.50;;;;;;601571;234;26642;-69
2022/07/07 12:35:26;;;;;;;1.25;1.15;;;23.30;86.00;;;;;;601508;237;26865;-69
2022/07/07 12:37:53;;;;;;;0.90;0.80;;;23.50;82.50;;;;;;601468;239;26636;-70
2022/07/07 12:40:22;;;;;;;1.00;0.90;;;23.30;82.40;;;;;;601489;239;27326;-70
2022/07/07 12:42:48;;;;;;;1.10;0.95;;;22.70;86.00;;;;;;601399;234;26812;-69
2022/07/07 12:45:16;;;;;;;0.70;0.70;;;22.00;84.30;;;;;;601542;239;26625;-70
2022/07/07 12:47:46;;;;;;;1.27;0.95;;;21.40;88.10;;;;;;601528;237;26650;-67
2022/07/07 12:50:13;;;;;;;2.45;1.17;;;21.40;88.00;;;;;;602151;237;26882;-74
2022/07/07 12:52:40;;;;;;;0.90;0.90;;;21.30;89.40;;;;;;602772;236;26625;-69
2022/07/07 12:55:09;;;;;;;1.80;1.27;;;20.90;88.60;;;;;;602446;237;26826;-70